Disclaimer

Please do not use the information listed here in-flight or in-navigation, as they are not provided to us by the airports but are provided by volunteers, so they might be outdated.

Search


Regions


Airport information page

Radio informations:
RONNE TWR - 118.325 MHz
HANDLING - 131.55 MHz

Airport informations:
Latitude: 55° 03' 47.76" N
Longitude: 014° 45' 34.41" E
Elevation: 52 feet - 16 meters
Operating hours: Remarks
Operating agency: Civil government, landing fees and diplomatic clearance may be required
Timezone: UTC+1(+2DT) - Last Sunday in March to last Sunday in October
Fuel: Jet A1, without icing nhibitor.

100/130 MIL Spec, low lead, aviation gasoline (BLUE)

Runway information:
11/29 - 6568 x 148 feet< - >2002 x 45 meters

Recent METARs:
EKRN 160650Z AUTO 15012KT 9999NDV NCD 08/05 Q1037
EKRN 160720Z AUTO 15014KT 9999NDV NCD 09/05 Q1037
EKRN 160750Z AUTO 15014KT 9999NDV NCD 09/05 Q1037

Airport on the map: